NCAR-RAP Real-Time Weather Data

Output produced by METARs form (10 December 2016  20:20 UTC)
found at http://weather.rap.ucar.edu/surface/
 
Conditions at: K4O4 observed 10 December 2016  19:55 UTC
Temperature: 6.0°C (43°F)
Dewpoint: -6.0°C (21°F) [RH = 42%]
Pressure (altimeter): 30.37 inches Hg (1028.5 mb)
Winds: from the SE (130 degrees) at 12 MPH (10 knots; 5.2 m/s)
Visibility: 10 or more miles (16+ km)
Ceiling: 6000 feet AGL
Clouds: broken clouds at 6000 feet AGL
Present Weather: automated observation with no human augmentation;
there may or may not be significant weather present at this time
K4O4 101955Z AUTO 13010KT 10SM BKN060 06/M06 A3037 RMK AO2